Guilford, Ohio
Current Conditions -  °F | °C
As of 7:56 AM on Wednesday 26 Nov 2014 (Local Time) from KBJJ Reporting Station
Overcast Overcast  
Wind Chill: 24°   Ceiling: 3100
Heat Index: 30°   Visibility: 9mi
Dew Point: 25°   Wind: 6mph
Humidity: 82%   Direction: 30°NNE
Pressure: 30.13"   Gusts: NA
Location:  41.0285°N, 81.8751°W
Report Text: KBJJ 261256Z AUTO 03005KT 9SM OVC031 M01/M04 A3013 RMK AO2 SLP214 T10111039 TSNO
Loading
Personal Weather Stations






























Interactive Weather Map New forecast layout! Learn more

10-Day Weather Forecast

Advertisements
Track Severe Weather on mobile